sensor_id;sensor_type;location;lat;lon;timestamp;P1;durP1;ratioP1;P2;durP2;ratioP2
39264;SDS011;42646;51.910;7.724;2022-10-04T00:02:24;5.75;;;3.42;;
39264;SDS011;42646;51.910;7.724;2022-10-04T00:04:57;6.47;;;3.60;;
39264;SDS011;42646;51.910;7.724;2022-10-04T00:07:31;5.38;;;3.13;;
39264;SDS011;42646;51.910;7.724;2022-10-04T00:10:02;5.78;;;3.20;;
39264;SDS011;42646;51.910;7.724;2022-10-04T00:12:34;4.90;;;3.22;;
39264;SDS011;42646;51.910;7.724;2022-10-04T00:15:15;4.38;;;2.83;;
39264;SDS011;42646;51.910;7.724;2022-10-04T00:17:58;4.72;;;2.97;;
39264;SDS011;42646;51.910;7.724;2022-10-04T00:23:29;5.85;;;3.00;;
39264;SDS011;42646;51.910;7.724;2022-10-04T00:26:10;5.05;;;3.22;;
39264;SDS011;42646;51.910;7.724;2022-10-04T00:28:42;5.97;;;3.30;;
39264;SDS011;42646;51.910;7.724;2022-10-04T00:31:22;5.72;;;3.30;;
39264;SDS011;42646;51.910;7.724;2022-10-04T00:33:52;4.82;;;3.45;;
39264;SDS011;42646;51.910;7.724;2022-10-04T00:36:33;5.63;;;3.60;;
39264;SDS011;42646;51.910;7.724;2022-10-04T00:39:14;6.53;;;3.90;;
39264;SDS011;42646;51.910;7.724;2022-10-04T00:42:18;7.70;;;3.85;;
39264;SDS011;42646;51.910;7.724;2022-10-04T00:45:06;6.35;;;3.88;;
39264;SDS011;42646;51.910;7.724;2022-10-04T00:47:54;4.85;;;3.53;;
39264;SDS011;42646;51.910;7.724;2022-10-04T00:50:27;5.72;;;3.72;;
39264;SDS011;42646;51.910;7.724;2022-10-04T00:53:01;5.80;;;3.67;;
39264;SDS011;42646;51.910;7.724;2022-10-04T00:55:40;6.50;;;3.80;;
39264;SDS011;42646;51.910;7.724;2022-10-04T00:58:13;6.18;;;3.78;;
39264;SDS011;42646;51.910;7.724;2022-10-04T01:00:46;5.75;;;3.42;;
39264;SDS011;42646;51.910;7.724;2022-10-04T01:03:17;7.63;;;4.00;;
39264;SDS011;42646;51.910;7.724;2022-10-04T01:05:51;5.68;;;4.22;;
39264;SDS011;42646;51.910;7.724;2022-10-04T01:08:25;6.95;;;4.30;;
39264;SDS011;42646;51.910;7.724;2022-10-04T01:10:59;7.70;;;4.28;;
39264;SDS011;42646;51.910;7.724;2022-10-04T01:13:30;6.35;;;4.15;;
39264;SDS011;42646;51.910;7.724;2022-10-04T01:16:08;7.22;;;4.32;;
39264;SDS011;42646;51.910;7.724;2022-10-04T01:18:39;7.72;;;4.30;;
39264;SDS011;42646;51.910;7.724;2022-10-04T01:21:08;10.07;;;4.47;;
39264;SDS011;42646;51.910;7.724;2022-10-04T01:24:02;7.50;;;4.40;;
39264;SDS011;42646;51.910;7.724;2022-10-04T01:26:43;8.13;;;4.30;;
39264;SDS011;42646;51.910;7.724;2022-10-04T01:29:13;7.25;;;4.63;;
39264;SDS011;42646;51.910;7.724;2022-10-04T01:31:43;6.43;;;4.13;;
39264;SDS011;42646;51.910;7.724;2022-10-04T01:34:13;7.78;;;4.80;;
39264;SDS011;42646;51.910;7.724;2022-10-04T01:36:42;7.80;;;4.63;;
39264;SDS011;42646;51.910;7.724;2022-10-04T01:39:13;8.45;;;4.93;;
39264;SDS011;42646;51.910;7.724;2022-10-04T01:41:44;6.95;;;4.45;;
39264;SDS011;42646;51.910;7.724;2022-10-04T01:44:18;6.35;;;4.55;;
39264;SDS011;42646;51.910;7.724;2022-10-04T01:46:51;8.60;;;4.93;;
39264;SDS011;42646;51.910;7.724;2022-10-04T01:49:24;8.55;;;4.85;;
39264;SDS011;42646;51.910;7.724;2022-10-04T01:51:56;7.75;;;4.95;;
39264;SDS011;42646;51.910;7.724;2022-10-04T01:54:32;7.25;;;4.35;;
39264;SDS011;42646;51.910;7.724;2022-10-04T01:57:04;7.43;;;4.72;;
39264;SDS011;42646;51.910;7.724;2022-10-04T01:59:38;7.55;;;4.88;;
39264;SDS011;42646;51.910;7.724;2022-10-04T02:02:16;10.48;;;5.10;;
39264;SDS011;42646;51.910;7.724;2022-10-04T02:04:49;7.78;;;5.22;;
39264;SDS011;42646;51.910;7.724;2022-10-04T02:07:20;9.20;;;5.38;;
39264;SDS011;42646;51.910;7.724;2022-10-04T02:09:53;9.23;;;5.10;;
39264;SDS011;42646;51.910;7.724;2022-10-04T02:12:24;7.60;;;4.72;;
39264;SDS011;42646;51.910;7.724;2022-10-04T02:14:54;7.88;;;5.18;;
39264;SDS011;42646;51.910;7.724;2022-10-04T02:17:24;8.60;;;5.15;;
39264;SDS011;42646;51.910;7.724;2022-10-04T02:19:55;7.13;;;5.15;;
39264;SDS011;42646;51.910;7.724;2022-10-04T02:22:24;7.85;;;4.88;;
39264;SDS011;42646;51.910;7.724;2022-10-04T02:24:54;10.40;;;5.40;;
39264;SDS011;42646;51.910;7.724;2022-10-04T02:27:26;7.10;;;4.93;;
39264;SDS011;42646;51.910;7.724;2022-10-04T02:29:59;7.30;;;5.00;;
39264;SDS011;42646;51.910;7.724;2022-10-04T02:32:29;9.02;;;5.15;;
39264;SDS011;42646;51.910;7.724;2022-10-04T02:35:15;10.50;;;4.97;;
39264;SDS011;42646;51.910;7.724;2022-10-04T02:37:45;9.63;;;5.25;;
39264;SDS011;42646;51.910;7.724;2022-10-04T02:40:16;7.82;;;5.60;;
39264;SDS011;42646;51.910;7.724;2022-10-04T02:42:51;7.93;;;5.45;;
39264;SDS011;42646;51.910;7.724;2022-10-04T02:45:26;8.43;;;5.15;;
39264;SDS011;42646;51.910;7.724;2022-10-04T02:48:03;7.53;;;4.82;;
39264;SDS011;42646;51.910;7.724;2022-10-04T02:50:40;7.25;;;5.10;;
39264;SDS011;42646;51.910;7.724;2022-10-04T02:53:17;8.07;;;5.47;;
39264;SDS011;42646;51.910;7.724;2022-10-04T02:55:49;7.88;;;5.57;;
39264;SDS011;42646;51.910;7.724;2022-10-04T02:58:19;8.23;;;5.70;;
39264;SDS011;42646;51.910;7.724;2022-10-04T03:00:50;9.13;;;5.65;;
39264;SDS011;42646;51.910;7.724;2022-10-04T03:03:22;8.10;;;5.43;;
39264;SDS011;42646;51.910;7.724;2022-10-04T03:05:54;7.32;;;5.72;;
39264;SDS011;42646;51.910;7.724;2022-10-04T03:08:27;8.30;;;5.40;;
39264;SDS011;42646;51.910;7.724;2022-10-04T03:10:59;10.40;;;5.87;;
39264;SDS011;42646;51.910;7.724;2022-10-04T03:13:30;8.90;;;5.75;;
39264;SDS011;42646;51.910;7.724;2022-10-04T03:15:59;7.43;;;5.68;;
39264;SDS011;42646;51.910;7.724;2022-10-04T03:18:27;9.52;;;5.70;;
39264;SDS011;42646;51.910;7.724;2022-10-04T03:20:56;7.50;;;5.53;;
39264;SDS011;42646;51.910;7.724;2022-10-04T03:23:24;7.65;;;5.35;;
39264;SDS011;42646;51.910;7.724;2022-10-04T03:25:52;8.57;;;5.38;;
39264;SDS011;42646;51.910;7.724;2022-10-04T03:28:27;8.93;;;5.50;;
39264;SDS011;42646;51.910;7.724;2022-10-04T03:30:56;8.77;;;5.88;;
39264;SDS011;42646;51.910;7.724;2022-10-04T03:33:25;7.75;;;5.40;;
39264;SDS011;42646;51.910;7.724;2022-10-04T03:35:54;7.65;;;5.72;;
39264;SDS011;42646;51.910;7.724;2022-10-04T03:38:26;7.80;;;5.35;;
39264;SDS011;42646;51.910;7.724;2022-10-04T03:40:55;9.23;;;5.30;;
39264;SDS011;42646;51.910;7.724;2022-10-04T03:43:25;7.68;;;5.28;;
39264;SDS011;42646;51.910;7.724;2022-10-04T03:45:57;8.05;;;5.38;;
39264;SDS011;42646;51.910;7.724;2022-10-04T03:48:31;9.55;;;5.53;;
39264;SDS011;42646;51.910;7.724;2022-10-04T03:51:02;9.05;;;5.97;;
39264;SDS011;42646;51.910;7.724;2022-10-04T03:53:33;7.50;;;5.43;;
39264;SDS011;42646;51.910;7.724;2022-10-04T03:56:08;9.65;;;5.60;;
39264;SDS011;42646;51.910;7.724;2022-10-04T03:58:40;7.70;;;5.90;;
39264;SDS011;42646;51.910;7.724;2022-10-04T04:01:12;11.63;;;5.88;;
39264;SDS011;42646;51.910;7.724;2022-10-04T04:03:59;9.15;;;5.85;;
39264;SDS011;42646;51.910;7.724;2022-10-04T04:06:34;9.57;;;5.95;;
39264;SDS011;42646;51.910;7.724;2022-10-04T04:09:06;10.02;;;6.40;;
39264;SDS011;42646;51.910;7.724;2022-10-04T04:11:42;8.63;;;6.55;;
39264;SDS011;42646;51.910;7.724;2022-10-04T04:14:18;9.18;;;6.45;;
39264;SDS011;42646;51.910;7.724;2022-10-04T04:16:51;9.13;;;5.80;;
39264;SDS011;42646;51.910;7.724;2022-10-04T04:19:21;10.73;;;6.45;;
39264;SDS011;42646;51.910;7.724;2022-10-04T04:21:52;9.93;;;6.55;;
39264;SDS011;42646;51.910;7.724;2022-10-04T04:24:23;8.70;;;6.43;;
39264;SDS011;42646;51.910;7.724;2022-10-04T04:26:55;9.32;;;6.15;;
39264;SDS011;42646;51.910;7.724;2022-10-04T04:29:27;10.07;;;6.28;;
39264;SDS011;42646;51.910;7.724;2022-10-04T04:32:00;7.65;;;5.90;;
39264;SDS011;42646;51.910;7.724;2022-10-04T04:34:31;11.52;;;6.18;;
39264;SDS011;42646;51.910;7.724;2022-10-04T04:37:02;10.02;;;6.10;;
39264;SDS011;42646;51.910;7.724;2022-10-04T04:39:31;9.38;;;6.57;;
39264;SDS011;42646;51.910;7.724;2022-10-04T04:42:04;7.85;;;5.55;;
39264;SDS011;42646;51.910;7.724;2022-10-04T04:44:45;9.27;;;5.82;;
39264;SDS011;42646;51.910;7.724;2022-10-04T04:47:26;9.02;;;6.65;;
39264;SDS011;42646;51.910;7.724;2022-10-04T04:49:57;9.07;;;5.97;;
39264;SDS011;42646;51.910;7.724;2022-10-04T04:52:32;9.52;;;6.32;;
39264;SDS011;42646;51.910;7.724;2022-10-04T04:55:02;9.10;;;5.95;;
39264;SDS011;42646;51.910;7.724;2022-10-04T04:57:31;10.50;;;6.10;;
39264;SDS011;42646;51.910;7.724;2022-10-04T05:00:01;8.82;;;6.07;;
39264;SDS011;42646;51.910;7.724;2022-10-04T05:02:30;7.93;;;5.53;;
39264;SDS011;42646;51.910;7.724;2022-10-04T05:05:16;8.95;;;6.10;;
39264;SDS011;42646;51.910;7.724;2022-10-04T05:07:46;7.65;;;5.45;;
39264;SDS011;42646;51.910;7.724;2022-10-04T05:13:04;7.25;;;5.35;;
39264;SDS011;42646;51.910;7.724;2022-10-04T05:15:36;8.65;;;5.63;;
39264;SDS011;42646;51.910;7.724;2022-10-04T05:18:12;8.45;;;5.75;;
39264;SDS011;42646;51.910;7.724;2022-10-04T05:20:44;8.77;;;5.85;;
39264;SDS011;42646;51.910;7.724;2022-10-04T05:23:15;6.65;;;5.07;;
39264;SDS011;42646;51.910;7.724;2022-10-04T05:25:42;8.55;;;4.97;;
39264;SDS011;42646;51.910;7.724;2022-10-04T05:28:11;8.43;;;5.50;;
39264;SDS011;42646;51.910;7.724;2022-10-04T05:30:44;7.43;;;5.43;;
39264;SDS011;42646;51.910;7.724;2022-10-04T05:33:20;7.78;;;5.20;;
39264;SDS011;42646;51.910;7.724;2022-10-04T05:35:54;7.35;;;5.05;;
39264;SDS011;42646;51.910;7.724;2022-10-04T05:38:36;8.75;;;5.53;;
39264;SDS011;42646;51.910;7.724;2022-10-04T05:41:12;7.10;;;5.18;;
39264;SDS011;42646;51.910;7.724;2022-10-04T05:43:48;8.98;;;5.00;;
39264;SDS011;42646;51.910;7.724;2022-10-04T05:46:20;7.60;;;5.13;;
39264;SDS011;42646;51.910;7.724;2022-10-04T05:48:51;7.93;;;5.13;;
39264;SDS011;42646;51.910;7.724;2022-10-04T05:51:21;8.23;;;5.43;;
39264;SDS011;42646;51.910;7.724;2022-10-04T05:53:50;10.77;;;5.88;;
39264;SDS011;42646;51.910;7.724;2022-10-04T05:59:20;9.80;;;5.40;;
39264;SDS011;42646;51.910;7.724;2022-10-04T06:02:05;7.40;;;5.03;;
39264;SDS011;42646;51.910;7.724;2022-10-04T06:04:51;7.57;;;5.50;;
39264;SDS011;42646;51.910;7.724;2022-10-04T06:07:37;7.10;;;5.10;;
39264;SDS011;42646;51.910;7.724;2022-10-04T06:10:14;8.73;;;5.82;;
39264;SDS011;42646;51.910;7.724;2022-10-04T06:12:56;8.35;;;5.20;;
39264;SDS011;42646;51.910;7.724;2022-10-04T06:15:34;7.35;;;5.30;;
39264;SDS011;42646;51.910;7.724;2022-10-04T06:18:23;7.70;;;5.13;;
39264;SDS011;42646;51.910;7.724;2022-10-04T06:21:18;6.53;;;5.05;;
39264;SDS011;42646;51.910;7.724;2022-10-04T06:23:50;8.93;;;5.38;;
39264;SDS011;42646;51.910;7.724;2022-10-04T06:26:24;8.25;;;5.70;;
39264;SDS011;42646;51.910;7.724;2022-10-04T06:28:57;7.93;;;5.82;;
39264;SDS011;42646;51.910;7.724;2022-10-04T06:31:35;7.85;;;5.32;;
39264;SDS011;42646;51.910;7.724;2022-10-04T06:34:32;8.68;;;5.55;;
39264;SDS011;42646;51.910;7.724;2022-10-04T06:37:18;9.00;;;6.30;;
39264;SDS011;42646;51.910;7.724;2022-10-04T06:43:04;8.05;;;5.55;;
39264;SDS011;42646;51.910;7.724;2022-10-04T06:45:57;9.00;;;6.30;;
39264;SDS011;42646;51.910;7.724;2022-10-04T06:48:39;10.75;;;6.60;;
39264;SDS011;42646;51.910;7.724;2022-10-04T06:51:22;9.68;;;6.82;;
39264;SDS011;42646;51.910;7.724;2022-10-04T06:54:09;9.57;;;6.93;;
39264;SDS011;42646;51.910;7.724;2022-10-04T06:56:53;9.10;;;7.13;;
39264;SDS011;42646;51.910;7.724;2022-10-04T06:59:36;12.93;;;7.93;;
39264;SDS011;42646;51.910;7.724;2022-10-04T07:02:17;12.77;;;7.95;;
39264;SDS011;42646;51.910;7.724;2022-10-04T07:04:53;10.00;;;7.55;;
39264;SDS011;42646;51.910;7.724;2022-10-04T07:07:36;11.18;;;8.02;;
39264;SDS011;42646;51.910;7.724;2022-10-04T07:10:17;9.27;;;7.25;;
39264;SDS011;42646;51.910;7.724;2022-10-04T07:12:53;11.35;;;7.68;;
39264;SDS011;42646;51.910;7.724;2022-10-04T07:15:35;11.20;;;8.43;;
39264;SDS011;42646;51.910;7.724;2022-10-04T07:18:12;11.65;;;7.70;;
39264;SDS011;42646;51.910;7.724;2022-10-04T07:20:43;12.35;;;7.60;;
39264;SDS011;42646;51.910;7.724;2022-10-04T07:23:19;9.75;;;7.45;;
39264;SDS011;42646;51.910;7.724;2022-10-04T07:25:54;9.02;;;7.72;;
39264;SDS011;42646;51.910;7.724;2022-10-04T07:28:28;9.50;;;6.95;;
39264;SDS011;42646;51.910;7.724;2022-10-04T07:31:22;11.45;;;7.68;;
39264;SDS011;42646;51.910;7.724;2022-10-04T07:33:54;9.23;;;7.43;;
39264;SDS011;42646;51.910;7.724;2022-10-04T07:36:25;12.17;;;7.33;;
39264;SDS011;42646;51.910;7.724;2022-10-04T07:38:57;10.52;;;7.28;;
39264;SDS011;42646;51.910;7.724;2022-10-04T07:41:32;10.52;;;7.35;;
39264;SDS011;42646;51.910;7.724;2022-10-04T07:44:05;12.20;;;7.97;;
39264;SDS011;42646;51.910;7.724;2022-10-04T07:46:43;9.30;;;7.22;;
39264;SDS011;42646;51.910;7.724;2022-10-04T07:49:16;9.55;;;6.47;;
39264;SDS011;42646;51.910;7.724;2022-10-04T07:51:57;10.65;;;7.35;;
39264;SDS011;42646;51.910;7.724;2022-10-04T07:54:35;11.68;;;7.53;;
39264;SDS011;42646;51.910;7.724;2022-10-04T07:57:07;10.95;;;7.40;;
39264;SDS011;42646;51.910;7.724;2022-10-04T07:59:45;9.48;;;6.50;;
39264;SDS011;42646;51.910;7.724;2022-10-04T08:02:20;12.25;;;7.30;;
39264;SDS011;42646;51.910;7.724;2022-10-04T08:05:03;8.30;;;6.30;;
39264;SDS011;42646;51.910;7.724;2022-10-04T08:07:46;9.43;;;6.40;;
39264;SDS011;42646;51.910;7.724;2022-10-04T08:10:28;9.95;;;6.32;;
39264;SDS011;42646;51.910;7.724;2022-10-04T08:13:03;9.10;;;6.50;;
39264;SDS011;42646;51.910;7.724;2022-10-04T08:15:42;7.97;;;5.97;;
39264;SDS011;42646;51.910;7.724;2022-10-04T08:18:18;8.32;;;6.13;;
39264;SDS011;42646;51.910;7.724;2022-10-04T08:20:55;8.27;;;5.68;;
39264;SDS011;42646;51.910;7.724;2022-10-04T08:26:28;8.45;;;5.90;;
39264;SDS011;42646;51.910;7.724;2022-10-04T08:29:12;8.07;;;6.20;;
39264;SDS011;42646;51.910;7.724;2022-10-04T08:32:13;10.25;;;5.72;;
39264;SDS011;42646;51.910;7.724;2022-10-04T08:34:56;8.88;;;6.28;;
39264;SDS011;42646;51.910;7.724;2022-10-04T08:37:49;9.70;;;5.50;;
39264;SDS011;42646;51.910;7.724;2022-10-04T08:40:34;9.50;;;6.05;;
39264;SDS011;42646;51.910;7.724;2022-10-04T08:43:27;10.68;;;5.50;;
39264;SDS011;42646;51.910;7.724;2022-10-04T08:46:12;8.15;;;5.22;;
39264;SDS011;42646;51.910;7.724;2022-10-04T08:49:09;7.80;;;5.00;;
39264;SDS011;42646;51.910;7.724;2022-10-04T08:51:56;11.43;;;5.30;;
39264;SDS011;42646;51.910;7.724;2022-10-04T08:54:43;8.30;;;4.60;;
39264;SDS011;42646;51.910;7.724;2022-10-04T08:57:43;7.70;;;4.83;;
39264;SDS011;42646;51.910;7.724;2022-10-04T09:00:29;9.00;;;4.82;;
39264;SDS011;42646;51.910;7.724;2022-10-04T09:03:18;10.00;;;4.78;;
39264;SDS011;42646;51.910;7.724;2022-10-04T09:06:23;6.35;;;4.20;;
39264;SDS011;42646;51.910;7.724;2022-10-04T09:15:31;7.15;;;4.50;;
39264;SDS011;42646;51.910;7.724;2022-10-04T09:18:16;7.22;;;4.40;;
39264;SDS011;42646;51.910;7.724;2022-10-04T09:20:54;9.15;;;4.72;;
39264;SDS011;42646;51.910;7.724;2022-10-04T09:23:43;8.75;;;4.30;;
39264;SDS011;42646;51.910;7.724;2022-10-04T09:26:23;8.73;;;4.00;;
39264;SDS011;42646;51.910;7.724;2022-10-04T09:29:13;8.20;;;4.72;;
39264;SDS011;42646;51.910;7.724;2022-10-04T09:35:03;8.73;;;3.90;;
39264;SDS011;42646;51.910;7.724;2022-10-04T09:37:55;8.65;;;4.05;;
39264;SDS011;42646;51.910;7.724;2022-10-04T09:46:54;8.02;;;3.70;;
39264;SDS011;42646;51.910;7.724;2022-10-04T09:49:49;7.32;;;3.78;;
39264;SDS011;42646;51.910;7.724;2022-10-04T09:52:38;6.97;;;3.63;;
39264;SDS011;42646;51.910;7.724;2022-10-04T09:55:29;8.32;;;3.85;;
39264;SDS011;42646;51.910;7.724;2022-10-04T09:58:21;8.48;;;3.63;;
39264;SDS011;42646;51.910;7.724;2022-10-04T10:01:01;6.38;;;3.10;;
39264;SDS011;42646;51.910;7.724;2022-10-04T10:03:52;8.45;;;3.60;;
39264;SDS011;42646;51.910;7.724;2022-10-04T10:06:49;7.70;;;3.08;;
39264;SDS011;42646;51.910;7.724;2022-10-04T10:09:30;7.30;;;3.03;;
39264;SDS011;42646;51.910;7.724;2022-10-04T10:12:36;8.75;;;3.38;;
39264;SDS011;42646;51.910;7.724;2022-10-04T10:15:41;7.05;;;3.60;;
39264;SDS011;42646;51.910;7.724;2022-10-04T10:18:25;6.28;;;3.10;;
39264;SDS011;42646;51.910;7.724;2022-10-04T10:21:12;6.95;;;3.70;;
39264;SDS011;42646;51.910;7.724;2022-10-04T10:27:14;10.85;;;3.55;;
39264;SDS011;42646;51.910;7.724;2022-10-04T10:30:04;7.05;;;3.58;;
39264;SDS011;42646;51.910;7.724;2022-10-04T10:32:56;7.65;;;3.58;;
39264;SDS011;42646;51.910;7.724;2022-10-04T10:39:08;7.07;;;3.30;;
39264;SDS011;42646;51.910;7.724;2022-10-04T10:41:55;6.57;;;3.08;;
39264;SDS011;42646;51.910;7.724;2022-10-04T10:44:46;6.47;;;3.13;;
39264;SDS011;42646;51.910;7.724;2022-10-04T10:47:34;5.57;;;2.90;;
39264;SDS011;42646;51.910;7.724;2022-10-04T10:56:23;6.15;;;2.83;;
39264;SDS011;42646;51.910;7.724;2022-10-04T11:02:06;6.85;;;3.15;;
39264;SDS011;42646;51.910;7.724;2022-10-04T11:05:17;8.90;;;3.20;;
39264;SDS011;42646;51.910;7.724;2022-10-04T11:08:02;7.78;;;3.35;;
39264;SDS011;42646;51.910;7.724;2022-10-04T11:10:53;9.20;;;3.67;;
39264;SDS011;42646;51.910;7.724;2022-10-04T11:17:05;7.25;;;3.65;;
39264;SDS011;42646;51.910;7.724;2022-10-04T11:20:04;7.55;;;3.63;;
39264;SDS011;42646;51.910;7.724;2022-10-04T11:23:06;10.48;;;3.85;;
39264;SDS011;42646;51.910;7.724;2022-10-04T11:25:56;7.38;;;3.17;;
39264;SDS011;42646;51.910;7.724;2022-10-04T11:28:39;8.95;;;3.17;;
39264;SDS011;42646;51.910;7.724;2022-10-04T11:31:23;6.90;;;3.22;;
39264;SDS011;42646;51.910;7.724;2022-10-04T11:37:13;6.57;;;3.42;;
39264;SDS011;42646;51.910;7.724;2022-10-04T11:39:52;5.18;;;3.17;;
39264;SDS011;42646;51.910;7.724;2022-10-04T11:42:37;5.43;;;2.88;;
39264;SDS011;42646;51.910;7.724;2022-10-04T11:45:29;5.90;;;3.08;;
39264;SDS011;42646;51.910;7.724;2022-10-04T11:48:11;7.15;;;3.28;;
39264;SDS011;42646;51.910;7.724;2022-10-04T11:50:53;7.18;;;3.25;;
39264;SDS011;42646;51.910;7.724;2022-10-04T11:53:59;7.57;;;3.58;;
39264;SDS011;42646;51.910;7.724;2022-10-04T11:56:44;7.32;;;3.33;;
39264;SDS011;42646;51.910;7.724;2022-10-04T11:59:33;8.02;;;3.20;;
39264;SDS011;42646;51.910;7.724;2022-10-04T12:05:27;6.57;;;3.65;;
39264;SDS011;42646;51.910;7.724;2022-10-04T12:11:09;6.95;;;3.53;;
39264;SDS011;42646;51.910;7.724;2022-10-04T12:14:14;7.38;;;3.45;;
39264;SDS011;42646;51.910;7.724;2022-10-04T12:17:07;6.43;;;3.38;;
39264;SDS011;42646;51.910;7.724;2022-10-04T12:20:02;6.85;;;3.20;;
39264;SDS011;42646;51.910;7.724;2022-10-04T12:26:16;7.63;;;3.67;;
39264;SDS011;42646;51.910;7.724;2022-10-04T12:31:55;8.43;;;4.07;;
39264;SDS011;42646;51.910;7.724;2022-10-04T12:34:27;6.32;;;3.55;;
39264;SDS011;42646;51.910;7.724;2022-10-04T12:37:02;8.20;;;3.10;;
39264;SDS011;42646;51.910;7.724;2022-10-04T12:39:49;6.15;;;3.50;;
39264;SDS011;42646;51.910;7.724;2022-10-04T12:42:29;8.52;;;3.92;;
39264;SDS011;42646;51.910;7.724;2022-10-04T12:45:13;7.88;;;3.35;;
39264;SDS011;42646;51.910;7.724;2022-10-04T12:48:01;6.97;;;3.85;;
39264;SDS011;42646;51.910;7.724;2022-10-04T12:53:15;7.03;;;3.50;;
39264;SDS011;42646;51.910;7.724;2022-10-04T12:55:56;7.40;;;3.17;;
39264;SDS011;42646;51.910;7.724;2022-10-04T12:58:53;5.03;;;3.28;;
39264;SDS011;42646;51.910;7.724;2022-10-04T13:01:35;7.47;;;3.40;;
39264;SDS011;42646;51.910;7.724;2022-10-04T13:04:17;8.60;;;3.90;;
39264;SDS011;42646;51.910;7.724;2022-10-04T13:06:58;7.22;;;3.55;;
39264;SDS011;42646;51.910;7.724;2022-10-04T13:09:55;6.10;;;3.30;;
39264;SDS011;42646;51.910;7.724;2022-10-04T13:15:52;21.35;;;3.58;;
39264;SDS011;42646;51.910;7.724;2022-10-04T13:18:47;6.05;;;3.15;;
39264;SDS011;42646;51.910;7.724;2022-10-04T13:21:39;6.22;;;3.00;;
39264;SDS011;42646;51.910;7.724;2022-10-04T13:24:30;6.88;;;3.22;;
39264;SDS011;42646;51.910;7.724;2022-10-04T13:27:38;5.70;;;2.58;;
39264;SDS011;42646;51.910;7.724;2022-10-04T13:30:15;6.13;;;2.53;;
39264;SDS011;42646;51.910;7.724;2022-10-04T13:32:54;6.07;;;3.03;;
39264;SDS011;42646;51.910;7.724;2022-10-04T13:35:30;7.82;;;2.88;;
39264;SDS011;42646;51.910;7.724;2022-10-04T13:38:07;5.60;;;2.50;;
39264;SDS011;42646;51.910;7.724;2022-10-04T13:40:56;7.05;;;2.70;;
39264;SDS011;42646;51.910;7.724;2022-10-04T13:43:51;6.43;;;3.13;;
39264;SDS011;42646;51.910;7.724;2022-10-04T13:46:36;5.95;;;2.75;;
39264;SDS011;42646;51.910;7.724;2022-10-04T13:49:15;6.25;;;2.38;;
39264;SDS011;42646;51.910;7.724;2022-10-04T13:51:57;4.70;;;2.60;;
39264;SDS011;42646;51.910;7.724;2022-10-04T13:54:53;6.03;;;2.75;;
39264;SDS011;42646;51.910;7.724;2022-10-04T13:57:55;7.50;;;2.75;;
39264;SDS011;42646;51.910;7.724;2022-10-04T14:00:36;5.50;;;3.33;;
39264;SDS011;42646;51.910;7.724;2022-10-04T14:03:21;5.45;;;2.80;;
39264;SDS011;42646;51.910;7.724;2022-10-04T14:06:15;6.90;;;2.90;;
39264;SDS011;42646;51.910;7.724;2022-10-04T14:08:59;7.10;;;3.17;;
39264;SDS011;42646;51.910;7.724;2022-10-04T14:12:04;5.05;;;2.70;;
39264;SDS011;42646;51.910;7.724;2022-10-04T14:15:21;4.53;;;2.55;;
39264;SDS011;42646;51.910;7.724;2022-10-04T14:18:36;4.97;;;2.47;;
39264;SDS011;42646;51.910;7.724;2022-10-04T14:24:41;7.00;;;2.60;;
39264;SDS011;42646;51.910;7.724;2022-10-04T14:27:34;6.30;;;2.75;;
39264;SDS011;42646;51.910;7.724;2022-10-04T14:30:28;6.38;;;2.50;;
39264;SDS011;42646;51.910;7.724;2022-10-04T14:36:10;5.72;;;2.45;;
39264;SDS011;42646;51.910;7.724;2022-10-04T14:39:01;8.20;;;2.47;;
39264;SDS011;42646;51.910;7.724;2022-10-04T14:41:50;4.60;;;2.40;;
39264;SDS011;42646;51.910;7.724;2022-10-04T14:44:47;5.95;;;2.45;;
39264;SDS011;42646;51.910;7.724;2022-10-04T14:47:59;4.38;;;2.45;;
39264;SDS011;42646;51.910;7.724;2022-10-04T14:50:57;5.72;;;2.63;;
39264;SDS011;42646;51.910;7.724;2022-10-04T14:53:40;4.45;;;2.40;;
39264;SDS011;42646;51.910;7.724;2022-10-04T14:56:35;5.57;;;2.70;;
39264;SDS011;42646;51.910;7.724;2022-10-04T14:59:24;5.03;;;2.38;;
39264;SDS011;42646;51.910;7.724;2022-10-04T15:02:12;5.20;;;2.30;;
39264;SDS011;42646;51.910;7.724;2022-10-04T15:05:02;7.38;;;2.25;;
39264;SDS011;42646;51.910;7.724;2022-10-04T15:08:13;4.82;;;2.15;;
39264;SDS011;42646;51.910;7.724;2022-10-04T15:10:58;5.15;;;2.45;;
39264;SDS011;42646;51.910;7.724;2022-10-04T15:13:30;4.95;;;2.00;;
39264;SDS011;42646;51.910;7.724;2022-10-04T15:16:06;4.90;;;2.03;;
39264;SDS011;42646;51.910;7.724;2022-10-04T15:18:46;4.38;;;2.08;;
39264;SDS011;42646;51.910;7.724;2022-10-04T15:21:32;5.13;;;2.42;;
39264;SDS011;42646;51.910;7.724;2022-10-04T15:24:20;4.60;;;2.03;;
39264;SDS011;42646;51.910;7.724;2022-10-04T15:26:53;4.38;;;2.17;;
39264;SDS011;42646;51.910;7.724;2022-10-04T15:29:43;3.63;;;2.10;;
39264;SDS011;42646;51.910;7.724;2022-10-04T15:32:25;3.80;;;2.00;;
39264;SDS011;42646;51.910;7.724;2022-10-04T15:35:04;4.65;;;2.45;;
39264;SDS011;42646;51.910;7.724;2022-10-04T15:37:47;4.00;;;2.25;;
39264;SDS011;42646;51.910;7.724;2022-10-04T15:40:35;4.25;;;2.22;;
39264;SDS011;42646;51.910;7.724;2022-10-04T15:43:17;5.75;;;2.20;;
39264;SDS011;42646;51.910;7.724;2022-10-04T15:45:53;5.03;;;2.15;;
39264;SDS011;42646;51.910;7.724;2022-10-04T15:51:47;5.53;;;2.40;;
39264;SDS011;42646;51.910;7.724;2022-10-04T15:57:51;4.50;;;2.10;;
39264;SDS011;42646;51.910;7.724;2022-10-04T16:00:38;4.47;;;2.00;;
39264;SDS011;42646;51.910;7.724;2022-10-04T16:03:21;4.30;;;1.98;;
39264;SDS011;42646;51.910;7.724;2022-10-04T16:05:58;3.95;;;1.77;;
39264;SDS011;42646;51.910;7.724;2022-10-04T16:08:34;4.82;;;2.20;;
39264;SDS011;42646;51.910;7.724;2022-10-04T16:11:22;3.25;;;1.90;;
39264;SDS011;42646;51.910;7.724;2022-10-04T16:17:01;4.10;;;2.03;;
39264;SDS011;42646;51.910;7.724;2022-10-04T16:19:53;5.25;;;2.30;;
39264;SDS011;42646;51.910;7.724;2022-10-04T16:22:33;4.00;;;2.10;;
39264;SDS011;42646;51.910;7.724;2022-10-04T16:28:03;3.90;;;2.25;;
39264;SDS011;42646;51.910;7.724;2022-10-04T16:30:47;5.07;;;2.38;;
39264;SDS011;42646;51.910;7.724;2022-10-04T16:33:39;6.47;;;2.80;;
39264;SDS011;42646;51.910;7.724;2022-10-04T16:36:17;5.53;;;2.70;;
39264;SDS011;42646;51.910;7.724;2022-10-04T16:38:50;5.07;;;2.88;;
39264;SDS011;42646;51.910;7.724;2022-10-04T16:41:40;5.40;;;2.50;;
39264;SDS011;42646;51.910;7.724;2022-10-04T16:44:12;6.93;;;2.70;;
39264;SDS011;42646;51.910;7.724;2022-10-04T16:46:57;5.03;;;2.42;;
39264;SDS011;42646;51.910;7.724;2022-10-04T16:49:30;3.92;;;2.10;;
39264;SDS011;42646;51.910;7.724;2022-10-04T16:55:15;4.95;;;2.50;;
39264;SDS011;42646;51.910;7.724;2022-10-04T17:01:19;4.60;;;2.63;;
39264;SDS011;42646;51.910;7.724;2022-10-04T17:04:10;5.38;;;2.00;;
39264;SDS011;42646;51.910;7.724;2022-10-04T17:06:58;4.00;;;2.35;;
39264;SDS011;42646;51.910;7.724;2022-10-04T17:09:32;4.22;;;2.58;;
39264;SDS011;42646;51.910;7.724;2022-10-04T17:12:12;6.00;;;2.35;;
39264;SDS011;42646;51.910;7.724;2022-10-04T17:15:05;7.88;;;2.67;;
39264;SDS011;42646;51.910;7.724;2022-10-04T17:17:55;6.75;;;2.50;;
39264;SDS011;42646;51.910;7.724;2022-10-04T17:20:28;4.25;;;2.40;;
39264;SDS011;42646;51.910;7.724;2022-10-04T17:23:16;6.05;;;2.80;;
39264;SDS011;42646;51.910;7.724;2022-10-04T17:25:58;6.55;;;2.47;;
39264;SDS011;42646;51.910;7.724;2022-10-04T17:28:40;5.20;;;2.35;;
39264;SDS011;42646;51.910;7.724;2022-10-04T17:31:16;9.05;;;2.70;;
39264;SDS011;42646;51.910;7.724;2022-10-04T17:33:53;5.47;;;2.67;;
39264;SDS011;42646;51.910;7.724;2022-10-04T17:36:37;4.57;;;2.70;;
39264;SDS011;42646;51.910;7.724;2022-10-04T17:39:13;5.47;;;2.50;;
39264;SDS011;42646;51.910;7.724;2022-10-04T17:42:01;4.78;;;3.13;;
39264;SDS011;42646;51.910;7.724;2022-10-04T17:44:40;5.07;;;2.83;;